Richville, Ohio
Current Conditions -  °F | °C
As of 6:51 PM on Friday 19 Dec 2014 (Local Time) from KCAK Reporting Station
Overcast Overcast  
Wind Chill: 24°   Ceiling: 2100
Heat Index: 30°   Visibility: 10mi
Dew Point: 21°   Wind: 6mph
Humidity: 69%   Direction: 330°NNW
Pressure: 30.26"   Gusts: NA
Location:  40.7516°N, 81.4187°W
Report Text: KCAK 192351Z 33005KT 10SM OVC021 M01/M06 A3026 RMK AO2 SLP262 T10111061 11006 21011 53013
Loading
Personal Weather Stations






























Interactive Weather Map New forecast layout! Learn more

10-Day Weather Forecast

Advertisements
Track Severe Weather on mobile